createdAt,value
2019-05-20T00:01:22.301Z,98799.45
2019-05-20T00:03:53.874Z,98804.44
2019-05-20T00:06:25.315Z,98807.59
2019-05-20T00:08:57.034Z,98803.61
2019-05-20T00:11:28.656Z,98812.25
2019-05-20T00:14:00.224Z,98817.23
2019-05-20T00:16:32.474Z,98817.23
2019-05-20T00:19:04.369Z,98816.27
2019-05-20T00:21:36.436Z,98820.96
2019-05-20T00:24:08.214Z,98823.95
2019-05-20T00:26:40.064Z,98827.64
2019-05-20T00:29:11.753Z,98824.45
2019-05-20T00:31:43.369Z,98831.95
2019-05-20T00:34:14.981Z,98836.11
2019-05-20T00:36:46.896Z,98837.11
2019-05-20T00:39:21.787Z,98839.62
2019-05-20T00:41:53.493Z,98846.28
2019-05-20T00:44:25.222Z,98854.56
2019-05-20T00:46:56.908Z,98853.77
2019-05-20T00:49:30.002Z,98856.05
2019-05-20T00:52:02.384Z,98864.68
2019-05-20T00:54:34.210Z,98864.68
2019-05-20T00:57:05.977Z,98871.32
2019-05-20T00:59:37.665Z,98868.67
2019-05-20T01:02:09.602Z,98873.55
2019-05-20T01:04:41.384Z,98865.20
2019-05-20T01:07:15.817Z,98867.36
2019-05-20T01:09:47.693Z,98873.75
2019-05-20T01:12:19.415Z,98873.75
2019-05-20T01:14:51.060Z,98876.38
2019-05-20T01:17:22.510Z,98883.38
2019-05-20T01:19:54.465Z,98881.08
2019-05-20T01:22:26.494Z,98891.08
2019-05-20T01:24:57.986Z,98891.08
2019-05-20T01:27:29.554Z,98897.81
2019-05-20T01:30:01.255Z,98902.75
2019-05-20T01:32:33.502Z,98903.05
2019-05-20T01:35:05.192Z,98907.23
2019-05-20T01:37:36.763Z,98911.13
2019-05-20T01:40:08.515Z,98914.92
2019-05-20T01:42:40.183Z,98917.89
2019-05-20T01:45:12.064Z,98917.89
2019-05-20T01:47:43.853Z,98921.91
2019-05-20T01:50:15.729Z,98932.11
2019-05-20T01:52:47.686Z,98936.63
2019-05-20T01:55:19.426Z,98939.66
2019-05-20T01:57:51.295Z,98937.79
2019-05-20T02:00:24.492Z,98942.28
2019-05-20T02:02:56.236Z,98942.28
2019-05-20T02:05:27.806Z,98940.57
2019-05-20T02:07:59.507Z,98945.84
2019-05-20T02:10:31.115Z,98950.37
2019-05-20T02:13:02.758Z,98955.86
2019-05-20T02:15:53.405Z,98954.47
2019-05-20T02:18:25.025Z,98954.47
2019-05-20T02:20:56.434Z,98954.96
2019-05-20T02:23:28.226Z,98961.30
2019-05-20T02:25:59.963Z,98961.30
2019-05-20T02:28:31.425Z,98964.00
2019-05-20T02:31:02.845Z,98964.47
2019-05-20T02:33:49.992Z,98964.47
2019-05-20T02:36:07.880Z,98963.01
2019-05-20T02:38:39.910Z,98963.01
2019-05-20T02:41:11.721Z,98972.50
2019-05-20T02:43:43.855Z,98980.53
2019-05-20T02:46:15.562Z,98984.60
2019-05-20T02:48:47.349Z,98984.12
2019-05-20T02:51:20.610Z,98993.45
2019-05-20T02:53:52.549Z,98999.24
2019-05-20T02:56:24.232Z,98998.44
2019-05-20T02:58:55.871Z,98995.97
2019-05-20T03:01:27.489Z,98995.97
2019-05-20T03:04:10.772Z,98992.84
2019-05-20T03:06:32.417Z,98992.59
2019-05-20T03:09:04.623Z,98991.97
2019-05-20T03:11:37.108Z,98998.05
2019-05-20T03:14:08.578Z,99000.59
2019-05-20T03:16:39.970Z,99003.17
2019-05-20T03:19:11.682Z,99008.30
2019-05-20T03:21:43.233Z,99008.30
2019-05-20T03:24:14.783Z,99007.74
2019-05-20T03:26:46.517Z,99007.74
2019-05-20T03:29:18.203Z,99003.20
2019-05-20T03:31:49.831Z,99003.88
2019-05-20T03:34:44.191Z,98997.82
2019-05-20T03:36:54.407Z,98999.98
2019-05-20T03:39:25.954Z,99002.81
2019-05-20T03:41:57.567Z,99003.25
2019-05-20T03:44:29.267Z,99003.70
2019-05-20T03:47:00.773Z,99001.19
2019-05-20T03:49:33.249Z,98998.08
2019-05-20T03:52:05.633Z,99013.09
2019-05-20T03:54:37.881Z,99008.13
2019-05-20T03:57:09.571Z,99008.13
2019-05-20T03:59:41.571Z,99009.66
2019-05-20T04:02:13.182Z,99009.66
2019-05-20T04:05:00.802Z,98999.22
2019-05-20T04:07:18.531Z,99003.68
2019-05-20T04:09:50.256Z,99002.80
2019-05-20T04:12:21.987Z,99002.53
2019-05-20T04:14:53.916Z,99002.53
2019-05-20T04:17:25.567Z,99001.28
2019-05-20T04:19:58.693Z,98993.88
2019-05-20T04:22:30.351Z,98996.36
2019-05-20T04:25:02.563Z,98996.36
2019-05-20T04:27:34.269Z,99002.31
2019-05-20T04:30:06.070Z,98993.42
2019-05-20T04:32:37.619Z,98997.58
2019-05-20T04:35:21.699Z,98988.44
2019-05-20T04:37:42.601Z,98994.67
2019-05-20T04:40:15.723Z,98994.20
2019-05-20T04:42:47.621Z,98992.30
2019-05-20T04:45:19.829Z,98992.30
2019-05-20T04:47:51.552Z,98981.53
2019-05-20T04:50:23.258Z,98981.53
2019-05-20T04:52:54.897Z,98980.67
2019-05-20T04:55:27.196Z,98977.88
2019-05-20T04:57:58.872Z,98976.63
2019-05-20T05:01:01.135Z,98976.63
2019-05-20T05:03:32.932Z,98979.87
2019-05-20T05:06:04.701Z,98973.14
2019-05-20T05:08:36.304Z,98974.88
2019-05-20T05:11:07.865Z,98972.70
2019-05-20T05:13:39.554Z,98973.21
2019-05-20T05:16:13.834Z,98979.64
2019-05-20T05:18:45.252Z,98969.17
2019-05-20T05:21:17.009Z,98968.58
2019-05-20T05:23:58.854Z,98962.42
2019-05-20T05:26:22.264Z,98962.42
2019-05-20T05:28:53.750Z,98967.31
2019-05-20T05:31:24.987Z,98968.55
2019-05-20T05:33:56.354Z,98957.38
2019-05-20T05:36:27.915Z,98957.38
2019-05-20T05:38:59.401Z,98951.27
2019-05-20T05:41:31.055Z,98956.77
2019-05-20T05:44:02.772Z,98948.94
2019-05-20T05:46:34.323Z,98938.98
2019-05-20T05:49:06.367Z,98939.97
2019-05-20T05:51:37.834Z,98941.17
2019-05-20T05:54:09.916Z,98931.27
2019-05-20T05:56:41.731Z,98934.42
2019-05-20T05:59:13.562Z,98933.55
2019-05-20T06:01:45.307Z,98928.20
2019-05-20T06:04:17.006Z,98928.53
2019-05-20T06:06:52.597Z,98921.80
2019-05-20T06:09:24.488Z,98921.80
2019-05-20T06:11:55.951Z,98908.19
2019-05-20T06:14:27.635Z,98906.25
2019-05-20T06:16:59.403Z,98914.41
2019-05-20T06:19:30.846Z,98914.41
2019-05-20T06:22:04.779Z,98908.12
2019-05-20T06:24:36.240Z,98902.87
2019-05-20T06:27:07.985Z,98901.37
2019-05-20T06:29:39.632Z,98895.62
2019-05-20T06:32:11.498Z,98895.62
2019-05-20T06:34:43.263Z,98887.25
2019-05-20T06:37:17.277Z,98887.25
2019-05-20T06:39:51.193Z,98886.61
2019-05-20T06:42:22.967Z,98880.63
2019-05-20T06:44:57.283Z,98876.56
2019-05-20T06:47:29.471Z,98882.28
2019-05-20T06:50:01.313Z,98876.72
2019-05-20T06:52:36.038Z,98870.20
2019-05-20T06:55:07.393Z,98870.20
2019-05-20T06:57:39.495Z,98866.70
2019-05-20T07:00:13.668Z,98867.50
2019-05-20T07:02:45.509Z,98856.79
2019-05-20T07:05:17.652Z,98856.77
2019-05-20T07:07:49.843Z,98852.53
2019-05-20T07:10:21.572Z,98852.45
2019-05-20T07:12:53.287Z,98844.86
2019-05-20T07:15:26.201Z,98842.31
2019-05-20T07:17:58.286Z,98840.38
2019-05-20T07:20:30.103Z,98840.38
2019-05-20T07:23:01.603Z,98829.20
2019-05-20T07:25:33.568Z,98829.20
2019-05-20T07:28:05.622Z,98821.04
2019-05-20T07:30:37.328Z,98828.45
2019-05-20T07:33:10.400Z,98819.45
2019-05-20T07:35:42.378Z,98819.45
2019-05-20T07:38:18.555Z,98810.00
2019-05-20T07:40:50.139Z,98806.55
2019-05-20T07:43:22.043Z,98811.16
2019-05-20T07:45:54.583Z,98803.82
2019-05-20T07:48:26.981Z,98803.82
2019-05-20T07:50:59.673Z,98787.36
2019-05-20T07:53:32.151Z,98785.80
2019-05-20T07:56:17.489Z,98776.46
2019-05-20T07:58:53.186Z,98776.46
2019-05-20T08:01:25.433Z,98780.24
2019-05-20T08:03:56.974Z,98763.83
2019-05-20T08:06:28.813Z,98755.22
2019-05-20T08:09:00.973Z,98755.22
2019-05-20T08:11:34.316Z,98757.66
2019-05-20T08:14:06.043Z,98752.84
2019-05-20T08:16:38.158Z,98752.84
2019-05-20T08:19:10.236Z,98741.69
2019-05-20T08:21:43.171Z,98733.29
2019-05-20T08:24:14.825Z,98733.29
2019-05-20T08:26:46.754Z,98727.84
2019-05-20T08:29:19.004Z,98731.45
2019-05-20T08:32:01.330Z,98726.63
2019-05-20T08:34:32.975Z,98719.73
2019-05-20T08:37:04.770Z,98710.86
2019-05-20T08:39:37.593Z,98701.28
2019-05-20T08:42:09.274Z,98701.28
2019-05-20T08:44:41.356Z,98695.97
2019-05-20T08:47:13.172Z,98690.96
2019-05-20T08:49:45.235Z,98690.81
2019-05-20T08:52:16.801Z,98684.95
2019-05-20T08:54:48.832Z,98685.88
2019-05-20T08:57:20.530Z,98680.77
2019-05-20T08:59:52.820Z,98667.66
2019-05-20T09:02:24.595Z,98671.19
2019-05-20T09:04:56.196Z,98668.78
2019-05-20T09:07:27.846Z,98668.78
2019-05-20T09:09:59.494Z,98652.28
2019-05-20T09:12:30.943Z,98649.44
2019-05-20T09:15:02.629Z,98658.74
2019-05-20T09:17:39.080Z,98658.74
2019-05-20T09:20:12.084Z,98648.94
2019-05-20T09:22:43.858Z,98650.37
2019-05-20T09:25:15.674Z,98645.27
2019-05-20T09:27:47.286Z,98645.27
2019-05-20T09:30:18.988Z,98635.86
2019-05-20T09:32:51.091Z,98636.05
2019-05-20T09:35:23.163Z,98635.34
2019-05-20T09:37:54.888Z,98635.34
2019-05-20T09:41:11.557Z,98628.22
2019-05-20T09:43:43.555Z,98628.22
2019-05-20T09:46:15.501Z,98629.50
2019-05-20T09:48:47.373Z,98625.30
2019-05-20T09:51:19.322Z,98616.50
2019-05-20T09:53:51.171Z,98610.77
2019-05-20T09:56:24.053Z,98609.55
2019-05-20T09:58:56.050Z,98609.55
2019-05-20T10:01:28.027Z,98605.52
2019-05-20T10:03:59.511Z,98611.89
2019-05-20T10:06:31.305Z,98607.23
2019-05-20T10:09:03.276Z,98593.81
2019-05-20T10:11:55.744Z,98588.77
2019-05-20T10:14:28.712Z,98588.77
2019-05-20T10:17:00.804Z,98589.47
2019-05-20T10:19:32.527Z,98579.61
2019-05-20T10:22:04.241Z,98579.61
2019-05-20T10:24:37.128Z,98572.20
2019-05-20T10:27:11.647Z,98572.20
2019-05-20T10:29:43.212Z,98571.49
2019-05-20T10:32:14.820Z,98560.72
2019-05-20T10:34:46.494Z,98563.33
2019-05-20T10:37:17.901Z,98555.22
2019-05-20T10:39:49.601Z,98557.58
2019-05-20T10:42:21.043Z,98547.49
2019-05-20T10:44:53.691Z,98547.30
2019-05-20T10:47:25.614Z,98547.34
2019-05-20T10:49:57.765Z,98540.16
2019-05-20T10:52:30.332Z,98537.48
2019-05-20T10:55:02.111Z,98537.97
2019-05-20T10:57:33.857Z,98534.89
2019-05-20T11:00:06.421Z,98527.25
2019-05-20T11:02:41.357Z,98522.68
2019-05-20T11:05:13.709Z,98522.68
2019-05-20T11:07:45.198Z,98518.17
2019-05-20T11:10:18.676Z,98518.17
2019-05-20T11:12:51.351Z,98518.77
2019-05-20T11:15:24.109Z,98506.86
2019-05-20T11:17:56.768Z,98511.61
2019-05-20T11:20:29.624Z,98506.59
2019-05-20T11:23:02.648Z,98512.08
2019-05-20T11:25:35.408Z,98508.47
2019-05-20T11:28:11.801Z,98516.11
2019-05-20T11:30:42.822Z,98507.80
2019-05-20T11:33:15.657Z,98512.95
2019-05-20T11:35:48.190Z,98519.61
2019-05-20T11:38:20.750Z,98522.36
2019-05-20T11:40:53.443Z,98515.10
2019-05-20T11:43:25.921Z,98511.95
2019-05-20T11:45:58.614Z,98522.41
2019-05-20T11:48:30.967Z,98522.41
2019-05-20T11:51:03.584Z,98519.28
2019-05-20T11:53:35.821Z,98519.28
2019-05-20T11:56:11.916Z,98503.97
2019-05-20T11:58:43.310Z,98505.34
2019-05-20T12:01:17.068Z,98505.34
2019-05-20T12:03:49.647Z,98512.50
2019-05-20T12:06:22.837Z,98510.33
2019-05-20T12:08:55.139Z,98512.50
2019-05-20T12:11:28.051Z,98508.22
2019-05-20T12:14:00.257Z,98512.38
2019-05-20T12:16:33.117Z,98512.53
2019-05-20T12:19:06.791Z,98517.27
2019-05-20T12:21:39.596Z,98516.14
2019-05-20T12:24:11.979Z,98516.16
2019-05-20T12:26:44.031Z,98515.27
2019-05-20T12:29:16.106Z,98522.38
2019-05-20T12:31:48.415Z,98512.36
2019-05-20T12:34:20.621Z,98511.14
2019-05-20T12:36:52.582Z,98517.61
2019-05-20T12:39:24.597Z,98512.97
2019-05-20T12:41:57.135Z,98517.67
2019-05-20T12:44:28.838Z,98521.13
2019-05-20T12:47:00.694Z,98521.13
2019-05-20T12:49:33.453Z,98523.05
2019-05-20T12:52:06.089Z,98523.34
2019-05-20T12:54:38.247Z,98528.81
2019-05-20T12:57:12.834Z,98528.81
2019-05-20T12:59:44.896Z,98525.46
2019-05-20T13:02:17.589Z,98531.65
2019-05-20T13:04:49.731Z,98533.16
2019-05-20T13:07:21.767Z,98529.45
2019-05-20T13:09:53.844Z,98532.98
2019-05-20T13:12:26.000Z,98527.86
2019-05-20T13:14:58.585Z,98528.70
2019-05-20T13:17:30.665Z,98531.75
2019-05-20T13:20:03.318Z,98535.27
2019-05-20T13:22:35.811Z,98537.85
2019-05-20T13:25:07.854Z,98537.80
2019-05-20T13:27:40.055Z,98543.26
2019-05-20T13:30:13.598Z,98543.26
2019-05-20T13:32:45.739Z,98536.16
2019-05-20T13:35:18.751Z,98546.36
2019-05-20T13:37:50.867Z,98546.79
2019-05-20T13:40:23.274Z,98551.81
2019-05-20T13:42:55.406Z,98551.81
2019-05-20T13:45:27.828Z,98561.84
2019-05-20T13:47:59.999Z,98554.41
2019-05-20T13:50:31.962Z,98560.77
2019-05-20T13:53:04.239Z,98569.92
2019-05-20T13:55:37.019Z,98567.17
2019-05-20T13:58:11.913Z,98565.95
2019-05-20T14:00:44.435Z,98572.64
2019-05-20T14:03:16.890Z,98581.78
2019-05-20T14:05:53.599Z,98581.84
2019-05-20T14:08:25.985Z,98581.95
2019-05-20T14:11:04.272Z,98587.24
2019-05-20T14:13:31.475Z,98589.52
2019-05-20T14:16:03.142Z,98588.84
2019-05-20T14:18:35.459Z,98591.65
2019-05-20T14:21:08.278Z,98594.81
2019-05-20T14:23:39.927Z,98596.13
2019-05-20T14:26:11.691Z,98598.83
2019-05-20T14:28:43.159Z,98606.96
2019-05-20T14:31:14.544Z,98604.70
2019-05-20T14:33:46.613Z,98604.70
2019-05-20T14:36:37.682Z,98606.03
2019-05-20T14:38:51.857Z,98612.61
2019-05-20T14:41:24.671Z,98611.75
2019-05-20T14:43:57.513Z,98615.83
2019-05-20T14:46:28.775Z,98620.45
2019-05-20T14:49:02.533Z,98621.42
2019-05-20T14:51:33.851Z,98618.07
2019-05-20T14:54:06.452Z,98618.94
2019-05-20T14:56:37.899Z,98630.80
2019-05-20T14:59:09.427Z,98630.80
2019-05-20T15:01:41.192Z,98626.86
2019-05-20T15:04:12.640Z,98635.70
2019-05-20T15:06:44.736Z,98630.11
2019-05-20T15:09:16.293Z,98635.24
2019-05-20T15:11:48.719Z,98628.94
2019-05-20T15:14:21.050Z,98634.21
2019-05-20T15:16:52.829Z,98635.27
2019-05-20T15:19:24.403Z,98642.66
2019-05-20T15:21:55.867Z,98640.52
2019-05-20T15:24:27.445Z,98652.30
2019-05-20T15:26:59.342Z,98647.37
2019-05-20T15:29:30.715Z,98645.41
2019-05-20T15:32:02.728Z,98654.09
2019-05-20T15:34:34.438Z,98649.88
2019-05-20T15:37:06.347Z,98657.22
2019-05-20T15:39:37.708Z,98654.53
2019-05-20T15:42:12.100Z,98654.86
2019-05-20T15:44:43.858Z,98663.14
2019-05-20T15:47:18.624Z,98658.83
2019-05-20T15:49:48.251Z,98661.30
2019-05-20T15:52:20.141Z,98666.16
2019-05-20T15:54:52.079Z,98664.83
2019-05-20T15:57:23.601Z,98671.54
2019-05-20T15:59:55.544Z,98669.26
2019-05-20T16:02:27.295Z,98677.75
2019-05-20T16:04:58.948Z,98683.94
2019-05-20T16:07:30.441Z,98686.53
2019-05-20T16:10:01.807Z,98687.23
2019-05-20T16:12:34.591Z,98687.76
2019-05-20T16:15:06.532Z,98699.77
2019-05-20T16:17:38.451Z,98708.73
2019-05-20T16:20:10.375Z,98708.73
2019-05-20T16:22:42.090Z,98705.52
2019-05-20T16:25:14.331Z,98709.88
2019-05-20T16:27:45.787Z,98710.07
2019-05-20T16:30:17.593Z,98718.64
2019-05-20T16:32:49.232Z,98720.09
2019-05-20T16:35:20.937Z,98720.09
2019-05-20T16:37:53.352Z,98716.66
2019-05-20T16:40:25.068Z,98718.80
2019-05-20T16:42:56.677Z,98719.94
2019-05-20T16:45:28.453Z,98720.45
2019-05-20T16:47:59.822Z,98720.45
2019-05-20T16:50:31.238Z,98718.66
2019-05-20T16:53:03.060Z,98732.78
2019-05-20T16:55:34.631Z,98732.78
2019-05-20T16:58:06.028Z,98728.52
2019-05-20T17:00:37.397Z,98728.52
2019-05-20T17:03:09.015Z,98729.08
2019-05-20T17:05:40.524Z,98729.08
2019-05-20T17:08:12.514Z,98729.28
2019-05-20T17:10:44.082Z,98735.47
2019-05-20T17:13:15.492Z,98732.45
2019-05-20T17:15:47.413Z,98734.20
2019-05-20T17:18:18.831Z,98734.20
2019-05-20T17:20:50.241Z,98734.49
2019-05-20T17:23:22.511Z,98733.03
2019-05-20T17:25:54.066Z,98733.03
2019-05-20T17:28:26.697Z,98727.55
2019-05-20T17:30:58.518Z,98729.59
2019-05-20T17:33:30.162Z,98727.07
2019-05-20T17:36:01.670Z,98722.83
2019-05-20T17:38:34.462Z,98722.83
2019-05-20T17:41:05.936Z,98720.84
2019-05-20T17:43:37.608Z,98720.84
2019-05-20T17:46:12.307Z,98720.53
2019-05-20T17:48:44.071Z,98714.08
2019-05-20T17:51:15.685Z,98717.56
2019-05-20T17:53:47.209Z,98710.67
2019-05-20T17:56:18.583Z,98710.25
2019-05-20T17:58:50.295Z,98704.03
2019-05-20T18:01:21.780Z,98704.03
2019-05-20T18:03:53.656Z,98703.58
2019-05-20T18:06:24.908Z,98700.07
2019-05-20T18:08:58.627Z,98700.07
2019-05-20T18:11:30.389Z,98699.78
2019-05-20T18:14:02.262Z,98694.91
2019-05-20T18:16:34.185Z,98691.84
2019-05-20T18:19:06.078Z,98686.16
2019-05-20T18:21:37.593Z,98686.16
2019-05-20T18:24:09.295Z,98692.31
2019-05-20T18:26:41.039Z,98692.31
2019-05-20T18:29:12.327Z,98674.19
2019-05-20T18:31:44.162Z,98677.88
2019-05-20T18:34:16.198Z,98676.47
2019-05-20T18:36:47.681Z,98676.47
2019-05-20T18:39:19.502Z,98667.92
2019-05-20T18:41:51.201Z,98669.00
2019-05-20T18:44:22.913Z,98669.00
2019-05-20T18:46:54.680Z,98666.09
2019-05-20T18:49:26.184Z,98654.83
2019-05-20T18:51:57.599Z,98661.84
2019-05-20T18:54:29.175Z,98659.39
2019-05-20T18:57:00.951Z,98653.81
2019-05-20T18:59:32.747Z,98655.06
2019-05-20T19:02:05.814Z,98655.06
2019-05-20T19:04:37.800Z,98649.70
2019-05-20T19:07:09.373Z,98649.28
2019-05-20T19:09:41.127Z,98653.95
2019-05-20T19:12:16.004Z,98653.95
2019-05-20T19:14:47.769Z,98647.95
2019-05-20T19:17:19.331Z,98650.03
2019-05-20T19:19:51.296Z,98650.03
2019-05-20T19:22:23.033Z,98649.02
2019-05-20T19:24:54.549Z,98640.21
2019-05-20T19:27:26.187Z,98642.43
2019-05-20T19:29:57.653Z,98641.50
2019-05-20T19:32:29.456Z,98642.56
2019-05-20T19:35:01.136Z,98633.60
2019-05-20T19:37:32.853Z,98633.60
2019-05-20T19:40:04.887Z,98627.71
2019-05-20T19:42:38.179Z,98630.39
2019-05-20T19:45:10.002Z,98629.64
2019-05-20T19:47:41.677Z,98617.62
2019-05-20T19:50:13.573Z,98617.78
2019-05-20T19:52:45.212Z,98617.55
2019-05-20T19:55:18.828Z,98616.48
2019-05-20T19:57:49.831Z,98617.62
2019-05-20T20:00:21.955Z,98615.19
2019-05-20T20:02:53.833Z,98612.56
2019-05-20T20:05:25.625Z,98612.14
2019-05-20T20:07:56.942Z,98610.66
2019-05-20T20:10:29.405Z,98612.46
2019-05-20T20:13:00.785Z,98609.52
2019-05-20T20:15:32.193Z,98604.98
2019-05-20T20:18:03.939Z,98601.66
2019-05-20T20:20:35.559Z,98601.66
2019-05-20T20:23:07.276Z,98596.68
2019-05-20T20:25:38.866Z,98596.68
2019-05-20T20:28:11.881Z,98592.02
2019-05-20T20:30:43.334Z,98593.63
2019-05-20T20:33:15.117Z,98590.25
2019-05-20T20:35:46.722Z,98583.81
2019-05-20T20:38:18.443Z,98581.91
2019-05-20T20:40:50.295Z,98583.13
2019-05-20T20:43:21.849Z,98583.13
2019-05-20T20:45:53.195Z,98582.77
2019-05-20T20:48:24.585Z,98581.58
2019-05-20T20:50:56.169Z,98575.47
2019-05-20T20:53:27.938Z,98580.88
2019-05-20T20:55:59.235Z,98580.88
2019-05-20T20:58:31.628Z,98575.75
2019-05-20T21:01:04.178Z,98578.75
2019-05-20T21:03:35.698Z,98578.75
2019-05-20T21:06:07.083Z,98580.70
2019-05-20T21:08:39.762Z,98579.94
2019-05-20T21:11:11.045Z,98573.90
2019-05-20T21:13:42.623Z,98577.03
2019-05-20T21:16:14.212Z,98573.62
2019-05-20T21:18:45.708Z,98573.62
2019-05-20T21:21:17.297Z,98568.27
2019-05-20T21:23:48.967Z,98571.58
2019-05-20T21:26:20.587Z,98567.54
2019-05-20T21:28:52.224Z,98561.84
2019-05-20T21:31:24.146Z,98561.45
2019-05-20T21:33:55.681Z,98560.52
2019-05-20T21:36:27.352Z,98558.77
2019-05-20T21:38:58.693Z,98552.34
2019-05-20T21:41:30.893Z,98547.05
2019-05-20T21:44:02.876Z,98547.05
2019-05-20T21:46:34.498Z,98545.67
2019-05-20T21:49:06.125Z,98549.54
2019-05-20T21:51:38.036Z,98556.28
2019-05-20T21:54:09.485Z,98550.23
2019-05-20T21:56:41.145Z,98554.06
2019-05-20T21:59:12.558Z,98554.06
2019-05-20T22:01:44.388Z,98555.34
2019-05-20T22:04:16.269Z,98552.86
2019-05-20T22:06:48.238Z,98550.88
2019-05-20T22:09:19.980Z,98554.38
2019-05-20T22:11:51.799Z,98553.45
2019-05-20T22:14:23.627Z,98562.86
2019-05-20T22:16:55.409Z,98562.86
2019-05-20T22:19:26.623Z,98566.50
2019-05-20T22:22:23.670Z,98571.62
2019-05-20T22:24:55.393Z,98569.41
2019-05-20T22:27:27.180Z,98569.41
2019-05-20T22:29:58.948Z,98569.15
2019-05-20T22:32:30.766Z,98568.16
2019-05-20T22:35:02.780Z,98573.05
2019-05-20T22:37:34.678Z,98578.22
2019-05-20T22:40:06.341Z,98581.26
2019-05-20T22:42:38.187Z,98579.00
2019-05-20T22:45:09.911Z,98584.95
2019-05-20T22:47:41.512Z,98580.86
2019-05-20T22:50:13.398Z,98579.97
2019-05-20T22:52:45.024Z,98579.97
2019-05-20T22:55:19.270Z,98582.97
2019-05-20T22:57:51.045Z,98582.08
2019-05-20T23:00:22.581Z,98586.91
2019-05-20T23:02:54.494Z,98589.45
2019-05-20T23:05:25.904Z,98590.72
2019-05-20T23:07:57.871Z,98597.86
2019-05-20T23:10:29.803Z,98600.39
2019-05-20T23:13:01.275Z,98600.39
2019-05-20T23:15:32.557Z,98590.91
2019-05-20T23:18:03.880Z,98594.23
2019-05-20T23:20:36.595Z,98599.52
2019-05-20T23:23:08.528Z,98596.14
2019-05-20T23:25:40.151Z,98591.92
2019-05-20T23:28:11.898Z,98599.18
2019-05-20T23:30:43.568Z,98603.70
2019-05-20T23:33:15.244Z,98608.29
2019-05-20T23:35:46.878Z,98610.94
2019-05-20T23:38:19.438Z,98615.73
2019-05-20T23:40:51.945Z,98615.73
2019-05-20T23:43:23.746Z,98615.72
2019-05-20T23:45:55.067Z,98621.00
2019-05-20T23:48:27.310Z,98629.94
2019-05-20T23:50:58.912Z,98635.94
2019-05-20T23:53:30.540Z,98635.48
2019-05-20T23:56:02.074Z,98640.50
2019-05-20T23:58:34.565Z,98648.12
